Kezdőlap
METAR-TAF:

METAR-TAF

Repülőterek :

Shepherd Bay, Nunavut, Kanada

földrajzi szélesség: 68-49N, földrajzi hosszúság: 093-26W, magasság: 51 m

Jelenlegi meteorológiai megfigyelések

A jelentés 16 perccel ezelõtt készült, 17:37 UTC
Déli szél 20 kt
Hőmérséklet -10°C
Páratartalom 85%
Légköri nyomás 1003 hPa
Kevés felhő 800 lábon
Szórványos felhőzet 2700 lábon
Szakadozott felhőzet 3200 lábon

METAR: CYUS 041737Z AUTO 17020KT ////SM //// FEW008 SCT027 BKN032 M10/M12 A2961

Idő: 10:53 (17:53 UTC)


TAF: hiányzik

Meteorológiai megfigyelések és előrejelzések több, mint 4000 repülőtéren (METAR és TAF jelentéseket).

A térképen piros és sárga pontok jelzik az elérhető meteorológiai állomásokat.

Mozgassa az egeret a pont fölött, hogy megjelenjen az állomás neve.

Azután kattintson az időjárási megfigyelések és előrejelzések megtekintéséhez.

A térkép megváltoztatása: kattintson a fekete keresztel jelölt zöld gombra ráközelítéshez, a vonallal jelölt zöld gombra távolításhoz, vagy a zöld nyilakra a szomszédos térképek eléréséhez.


METAR-TAF: